sensor_id;sensor_type;location;lat;lon;timestamp;P1;durP1;ratioP1;P2;durP2;ratioP2
58518;SDS011;44310;48.106;12.008;2023-06-14T00:01:43;0.20;;;0.20;;
58518;SDS011;44310;48.106;12.008;2023-06-14T00:04:12;0.20;;;0.20;;
58518;SDS011;44310;48.106;12.008;2023-06-14T00:06:40;0.20;;;0.20;;
58518;SDS011;44310;48.106;12.008;2023-06-14T00:09:08;0.20;;;0.20;;
58518;SDS011;44310;48.106;12.008;2023-06-14T00:11:35;0.20;;;0.20;;
58518;SDS011;44310;48.106;12.008;2023-06-14T00:14:02;0.20;;;0.20;;
58518;SDS011;44310;48.106;12.008;2023-06-14T00:16:30;0.30;;;0.30;;
58518;SDS011;44310;48.106;12.008;2023-06-14T00:18:59;0.20;;;0.20;;
58518;SDS011;44310;48.106;12.008;2023-06-14T00:21:26;0.30;;;0.30;;
58518;SDS011;44310;48.106;12.008;2023-06-14T00:23:57;0.20;;;0.20;;
58518;SDS011;44310;48.106;12.008;2023-06-14T00:26:24;0.20;;;0.20;;
58518;SDS011;44310;48.106;12.008;2023-06-14T00:28:53;0.20;;;0.20;;
58518;SDS011;44310;48.106;12.008;2023-06-14T00:31:20;0.20;;;0.20;;
58518;SDS011;44310;48.106;12.008;2023-06-14T00:33:48;0.20;;;0.20;;
58518;SDS011;44310;48.106;12.008;2023-06-14T00:36:15;0.20;;;0.20;;
58518;SDS011;44310;48.106;12.008;2023-06-14T00:38:42;0.30;;;0.30;;
58518;SDS011;44310;48.106;12.008;2023-06-14T00:41:09;0.30;;;0.30;;
58518;SDS011;44310;48.106;12.008;2023-06-14T00:43:36;0.20;;;0.20;;
58518;SDS011;44310;48.106;12.008;2023-06-14T00:46:03;0.20;;;0.20;;
58518;SDS011;44310;48.106;12.008;2023-06-14T00:48:31;0.30;;;0.30;;
58518;SDS011;44310;48.106;12.008;2023-06-14T00:50:59;0.30;;;0.30;;
58518;SDS011;44310;48.106;12.008;2023-06-14T00:53:30;0.30;;;0.30;;
58518;SDS011;44310;48.106;12.008;2023-06-14T00:56:00;0.20;;;0.20;;
58518;SDS011;44310;48.106;12.008;2023-06-14T00:58:27;0.25;;;0.25;;
58518;SDS011;44310;48.106;12.008;2023-06-14T01:00:55;0.30;;;0.30;;
58518;SDS011;44310;48.106;12.008;2023-06-14T01:03:23;0.30;;;0.30;;
58518;SDS011;44310;48.106;12.008;2023-06-14T01:05:53;0.20;;;0.20;;
58518;SDS011;44310;48.106;12.008;2023-06-14T01:08:31;0.20;;;0.20;;
58518;SDS011;44310;48.106;12.008;2023-06-14T01:11:14;0.30;;;0.30;;
58518;SDS011;44310;48.106;12.008;2023-06-14T01:13:48;0.20;;;0.20;;
58518;SDS011;44310;48.106;12.008;2023-06-14T01:16:18;0.20;;;0.20;;
58518;SDS011;44310;48.106;12.008;2023-06-14T01:18:46;0.30;;;0.30;;
58518;SDS011;44310;48.106;12.008;2023-06-14T01:21:24;0.30;;;0.30;;
58518;SDS011;44310;48.106;12.008;2023-06-14T01:23:52;0.30;;;0.30;;
58518;SDS011;44310;48.106;12.008;2023-06-14T01:26:20;0.30;;;0.30;;
58518;SDS011;44310;48.106;12.008;2023-06-14T01:28:48;0.30;;;0.30;;
58518;SDS011;44310;48.106;12.008;2023-06-14T01:31:18;0.20;;;0.20;;
58518;SDS011;44310;48.106;12.008;2023-06-14T01:33:50;0.20;;;0.20;;
58518;SDS011;44310;48.106;12.008;2023-06-14T01:36:19;0.20;;;0.20;;
58518;SDS011;44310;48.106;12.008;2023-06-14T01:38:47;0.20;;;0.20;;
58518;SDS011;44310;48.106;12.008;2023-06-14T01:41:17;0.30;;;0.30;;
58518;SDS011;44310;48.106;12.008;2023-06-14T01:43:46;0.30;;;0.30;;
58518;SDS011;44310;48.106;12.008;2023-06-14T01:46:15;0.30;;;0.30;;
58518;SDS011;44310;48.106;12.008;2023-06-14T01:48:43;0.30;;;0.30;;
58518;SDS011;44310;48.106;12.008;2023-06-14T01:51:10;0.30;;;0.30;;
58518;SDS011;44310;48.106;12.008;2023-06-14T01:53:37;0.30;;;0.30;;
58518;SDS011;44310;48.106;12.008;2023-06-14T01:56:04;0.30;;;0.30;;
58518;SDS011;44310;48.106;12.008;2023-06-14T01:58:32;0.30;;;0.30;;
58518;SDS011;44310;48.106;12.008;2023-06-14T02:01:00;0.30;;;0.30;;
58518;SDS011;44310;48.106;12.008;2023-06-14T02:03:27;0.27;;;0.27;;
58518;SDS011;44310;48.106;12.008;2023-06-14T02:05:55;0.30;;;0.30;;
58518;SDS011;44310;48.106;12.008;2023-06-14T02:08:23;0.20;;;0.20;;
58518;SDS011;44310;48.106;12.008;2023-06-14T02:10:50;0.22;;;0.22;;
58518;SDS011;44310;48.106;12.008;2023-06-14T02:13:18;0.20;;;0.20;;
58518;SDS011;44310;48.106;12.008;2023-06-14T02:15:45;0.20;;;0.20;;
58518;SDS011;44310;48.106;12.008;2023-06-14T02:18:13;0.20;;;0.20;;
58518;SDS011;44310;48.106;12.008;2023-06-14T02:20:40;0.20;;;0.20;;
58518;SDS011;44310;48.106;12.008;2023-06-14T02:23:07;0.30;;;0.30;;
58518;SDS011;44310;48.106;12.008;2023-06-14T02:25:34;0.30;;;0.30;;
58518;SDS011;44310;48.106;12.008;2023-06-14T02:28:02;0.20;;;0.20;;
58518;SDS011;44310;48.106;12.008;2023-06-14T02:30:29;0.30;;;0.30;;
58518;SDS011;44310;48.106;12.008;2023-06-14T02:32:57;0.20;;;0.20;;
58518;SDS011;44310;48.106;12.008;2023-06-14T02:35:25;0.20;;;0.20;;
58518;SDS011;44310;48.106;12.008;2023-06-14T02:37:53;0.28;;;0.28;;
58518;SDS011;44310;48.106;12.008;2023-06-14T02:40:21;0.30;;;0.30;;
58518;SDS011;44310;48.106;12.008;2023-06-14T02:42:48;0.30;;;0.30;;
58518;SDS011;44310;48.106;12.008;2023-06-14T02:45:15;0.30;;;0.30;;
58518;SDS011;44310;48.106;12.008;2023-06-14T02:47:42;0.30;;;0.30;;
58518;SDS011;44310;48.106;12.008;2023-06-14T02:50:09;0.30;;;0.30;;
58518;SDS011;44310;48.106;12.008;2023-06-14T02:52:37;0.30;;;0.30;;
58518;SDS011;44310;48.106;12.008;2023-06-14T02:55:04;0.25;;;0.25;;
58518;SDS011;44310;48.106;12.008;2023-06-14T02:57:32;0.30;;;0.30;;
58518;SDS011;44310;48.106;12.008;2023-06-14T02:59:59;0.30;;;0.30;;
58518;SDS011;44310;48.106;12.008;2023-06-14T03:02:27;0.30;;;0.30;;
58518;SDS011;44310;48.106;12.008;2023-06-14T03:04:54;0.40;;;0.40;;
58518;SDS011;44310;48.106;12.008;2023-06-14T03:07:22;0.30;;;0.30;;
58518;SDS011;44310;48.106;12.008;2023-06-14T03:09:49;0.30;;;0.30;;
58518;SDS011;44310;48.106;12.008;2023-06-14T03:12:16;0.30;;;0.30;;
58518;SDS011;44310;48.106;12.008;2023-06-14T03:14:44;0.30;;;0.30;;
58518;SDS011;44310;48.106;12.008;2023-06-14T03:17:13;0.30;;;0.30;;
58518;SDS011;44310;48.106;12.008;2023-06-14T03:19:40;0.23;;;0.23;;
58518;SDS011;44310;48.106;12.008;2023-06-14T03:22:08;0.20;;;0.20;;
58518;SDS011;44310;48.106;12.008;2023-06-14T03:24:35;0.30;;;0.30;;
58518;SDS011;44310;48.106;12.008;2023-06-14T03:27:03;0.30;;;0.30;;
58518;SDS011;44310;48.106;12.008;2023-06-14T03:29:31;0.20;;;0.20;;
58518;SDS011;44310;48.106;12.008;2023-06-14T03:31:58;0.20;;;0.20;;
58518;SDS011;44310;48.106;12.008;2023-06-14T03:34:27;0.20;;;0.20;;
58518;SDS011;44310;48.106;12.008;2023-06-14T03:36:54;0.20;;;0.20;;
58518;SDS011;44310;48.106;12.008;2023-06-14T03:39:22;0.20;;;0.20;;
58518;SDS011;44310;48.106;12.008;2023-06-14T03:41:49;0.20;;;0.20;;
58518;SDS011;44310;48.106;12.008;2023-06-14T03:44:17;0.20;;;0.20;;
58518;SDS011;44310;48.106;12.008;2023-06-14T03:46:45;0.20;;;0.20;;
58518;SDS011;44310;48.106;12.008;2023-06-14T03:49:13;0.30;;;0.30;;
58518;SDS011;44310;48.106;12.008;2023-06-14T03:51:40;0.20;;;0.20;;
58518;SDS011;44310;48.106;12.008;2023-06-14T03:54:07;0.20;;;0.20;;
58518;SDS011;44310;48.106;12.008;2023-06-14T03:56:38;0.30;;;0.30;;
58518;SDS011;44310;48.106;12.008;2023-06-14T03:59:05;0.30;;;0.30;;
58518;SDS011;44310;48.106;12.008;2023-06-14T04:01:32;0.30;;;0.30;;
58518;SDS011;44310;48.106;12.008;2023-06-14T04:04:00;0.30;;;0.30;;
58518;SDS011;44310;48.106;12.008;2023-06-14T04:06:28;0.28;;;0.28;;
58518;SDS011;44310;48.106;12.008;2023-06-14T04:08:59;0.20;;;0.20;;
58518;SDS011;44310;48.106;12.008;2023-06-14T04:11:31;0.22;;;0.22;;
58518;SDS011;44310;48.106;12.008;2023-06-14T04:13:58;0.20;;;0.20;;
58518;SDS011;44310;48.106;12.008;2023-06-14T04:16:25;0.30;;;0.30;;
58518;SDS011;44310;48.106;12.008;2023-06-14T04:18:54;0.30;;;0.30;;
58518;SDS011;44310;48.106;12.008;2023-06-14T04:21:22;0.30;;;0.30;;
58518;SDS011;44310;48.106;12.008;2023-06-14T04:23:49;0.30;;;0.30;;
58518;SDS011;44310;48.106;12.008;2023-06-14T04:26:19;0.22;;;0.22;;
58518;SDS011;44310;48.106;12.008;2023-06-14T04:28:49;0.30;;;0.30;;
58518;SDS011;44310;48.106;12.008;2023-06-14T04:31:17;0.30;;;0.30;;
58518;SDS011;44310;48.106;12.008;2023-06-14T04:33:44;0.30;;;0.30;;
58518;SDS011;44310;48.106;12.008;2023-06-14T04:36:13;0.30;;;0.30;;
58518;SDS011;44310;48.106;12.008;2023-06-14T04:38:44;0.30;;;0.30;;
58518;SDS011;44310;48.106;12.008;2023-06-14T04:41:12;0.28;;;0.28;;
58518;SDS011;44310;48.106;12.008;2023-06-14T04:43:39;0.30;;;0.30;;
58518;SDS011;44310;48.106;12.008;2023-06-14T04:46:07;0.30;;;0.30;;
58518;SDS011;44310;48.106;12.008;2023-06-14T04:48:40;0.30;;;0.30;;
58518;SDS011;44310;48.106;12.008;2023-06-14T04:51:09;0.30;;;0.30;;
58518;SDS011;44310;48.106;12.008;2023-06-14T04:53:36;0.30;;;0.30;;
58518;SDS011;44310;48.106;12.008;2023-06-14T04:56:04;0.30;;;0.30;;
58518;SDS011;44310;48.106;12.008;2023-06-14T04:58:31;0.30;;;0.30;;
58518;SDS011;44310;48.106;12.008;2023-06-14T05:00:58;0.30;;;0.30;;
58518;SDS011;44310;48.106;12.008;2023-06-14T05:03:26;0.30;;;0.30;;
58518;SDS011;44310;48.106;12.008;2023-06-14T05:05:54;0.30;;;0.30;;
58518;SDS011;44310;48.106;12.008;2023-06-14T05:08:21;0.30;;;0.30;;
58518;SDS011;44310;48.106;12.008;2023-06-14T05:10:50;0.30;;;0.30;;
58518;SDS011;44310;48.106;12.008;2023-06-14T05:13:18;0.30;;;0.30;;
58518;SDS011;44310;48.106;12.008;2023-06-14T05:15:45;0.30;;;0.30;;
58518;SDS011;44310;48.106;12.008;2023-06-14T05:18:12;0.30;;;0.30;;
58518;SDS011;44310;48.106;12.008;2023-06-14T05:20:40;0.30;;;0.30;;
58518;SDS011;44310;48.106;12.008;2023-06-14T05:23:11;0.30;;;0.30;;
58518;SDS011;44310;48.106;12.008;2023-06-14T05:25:42;0.30;;;0.30;;
58518;SDS011;44310;48.106;12.008;2023-06-14T05:28:10;0.30;;;0.30;;
58518;SDS011;44310;48.106;12.008;2023-06-14T05:30:38;0.30;;;0.30;;
58518;SDS011;44310;48.106;12.008;2023-06-14T05:33:06;0.30;;;0.30;;
58518;SDS011;44310;48.106;12.008;2023-06-14T05:35:33;0.30;;;0.30;;
58518;SDS011;44310;48.106;12.008;2023-06-14T05:38:01;0.30;;;0.30;;
58518;SDS011;44310;48.106;12.008;2023-06-14T05:40:28;0.30;;;0.30;;
58518;SDS011;44310;48.106;12.008;2023-06-14T05:42:55;0.30;;;0.30;;
58518;SDS011;44310;48.106;12.008;2023-06-14T05:45:22;0.20;;;0.20;;
58518;SDS011;44310;48.106;12.008;2023-06-14T05:47:50;0.30;;;0.30;;
58518;SDS011;44310;48.106;12.008;2023-06-14T05:50:17;0.30;;;0.30;;
58518;SDS011;44310;48.106;12.008;2023-06-14T05:52:44;0.30;;;0.30;;
58518;SDS011;44310;48.106;12.008;2023-06-14T05:55:11;0.20;;;0.20;;
58518;SDS011;44310;48.106;12.008;2023-06-14T05:57:40;0.30;;;0.30;;
58518;SDS011;44310;48.106;12.008;2023-06-14T06:00:08;0.30;;;0.30;;
58518;SDS011;44310;48.106;12.008;2023-06-14T06:02:41;0.30;;;0.30;;
58518;SDS011;44310;48.106;12.008;2023-06-14T06:05:10;0.30;;;0.30;;
58518;SDS011;44310;48.106;12.008;2023-06-14T06:07:42;0.30;;;0.30;;
58518;SDS011;44310;48.106;12.008;2023-06-14T06:10:12;0.30;;;0.30;;
58518;SDS011;44310;48.106;12.008;2023-06-14T06:12:40;0.30;;;0.30;;
58518;SDS011;44310;48.106;12.008;2023-06-14T06:15:08;0.20;;;0.20;;
58518;SDS011;44310;48.106;12.008;2023-06-14T06:17:39;0.30;;;0.30;;
58518;SDS011;44310;48.106;12.008;2023-06-14T06:20:21;0.30;;;0.30;;
58518;SDS011;44310;48.106;12.008;2023-06-14T06:22:55;0.28;;;0.28;;
58518;SDS011;44310;48.106;12.008;2023-06-14T06:25:22;0.30;;;0.30;;
58518;SDS011;44310;48.106;12.008;2023-06-14T06:27:53;0.28;;;0.28;;
58518;SDS011;44310;48.106;12.008;2023-06-14T06:30:20;0.30;;;0.30;;
58518;SDS011;44310;48.106;12.008;2023-06-14T06:32:47;0.30;;;0.30;;
58518;SDS011;44310;48.106;12.008;2023-06-14T06:35:15;0.20;;;0.20;;
58518;SDS011;44310;48.106;12.008;2023-06-14T06:37:43;0.30;;;0.30;;
58518;SDS011;44310;48.106;12.008;2023-06-14T06:40:10;0.30;;;0.30;;
58518;SDS011;44310;48.106;12.008;2023-06-14T06:42:38;0.30;;;0.30;;
58518;SDS011;44310;48.106;12.008;2023-06-14T06:45:05;0.30;;;0.30;;
58518;SDS011;44310;48.106;12.008;2023-06-14T06:47:32;0.30;;;0.30;;
58518;SDS011;44310;48.106;12.008;2023-06-14T06:49:59;0.30;;;0.30;;
58518;SDS011;44310;48.106;12.008;2023-06-14T06:52:27;0.30;;;0.30;;
58518;SDS011;44310;48.106;12.008;2023-06-14T06:54:55;0.30;;;0.30;;
58518;SDS011;44310;48.106;12.008;2023-06-14T06:57:23;0.30;;;0.30;;
58518;SDS011;44310;48.106;12.008;2023-06-14T06:59:50;0.30;;;0.30;;
58518;SDS011;44310;48.106;12.008;2023-06-14T07:02:17;0.30;;;0.30;;
58518;SDS011;44310;48.106;12.008;2023-06-14T07:04:45;0.30;;;0.30;;
58518;SDS011;44310;48.106;12.008;2023-06-14T07:07:13;0.30;;;0.30;;
58518;SDS011;44310;48.106;12.008;2023-06-14T07:09:40;0.30;;;0.30;;
58518;SDS011;44310;48.106;12.008;2023-06-14T07:12:08;0.30;;;0.30;;
58518;SDS011;44310;48.106;12.008;2023-06-14T07:14:37;0.20;;;0.20;;
58518;SDS011;44310;48.106;12.008;2023-06-14T07:17:04;0.30;;;0.30;;
58518;SDS011;44310;48.106;12.008;2023-06-14T07:19:31;0.20;;;0.20;;
58518;SDS011;44310;48.106;12.008;2023-06-14T07:21:59;0.30;;;0.30;;
58518;SDS011;44310;48.106;12.008;2023-06-14T07:24:26;0.30;;;0.30;;
58518;SDS011;44310;48.106;12.008;2023-06-14T07:26:55;0.30;;;0.30;;
58518;SDS011;44310;48.106;12.008;2023-06-14T07:29:23;0.47;;;0.47;;
58518;SDS011;44310;48.106;12.008;2023-06-14T07:31:50;0.40;;;0.40;;
58518;SDS011;44310;48.106;12.008;2023-06-14T07:34:17;0.70;;;0.70;;
58518;SDS011;44310;48.106;12.008;2023-06-14T07:36:44;0.30;;;0.30;;
58518;SDS011;44310;48.106;12.008;2023-06-14T07:39:11;0.30;;;0.30;;
58518;SDS011;44310;48.106;12.008;2023-06-14T07:41:39;0.40;;;0.40;;
58518;SDS011;44310;48.106;12.008;2023-06-14T07:44:06;0.30;;;0.30;;
58518;SDS011;44310;48.106;12.008;2023-06-14T07:46:33;0.30;;;0.30;;
58518;SDS011;44310;48.106;12.008;2023-06-14T07:49:01;0.30;;;0.30;;
58518;SDS011;44310;48.106;12.008;2023-06-14T07:51:28;0.30;;;0.30;;
58518;SDS011;44310;48.106;12.008;2023-06-14T07:53:56;0.30;;;0.30;;
58518;SDS011;44310;48.106;12.008;2023-06-14T07:56:23;0.30;;;0.30;;
58518;SDS011;44310;48.106;12.008;2023-06-14T07:58:50;0.30;;;0.30;;
58518;SDS011;44310;48.106;12.008;2023-06-14T08:01:17;0.30;;;0.30;;
58518;SDS011;44310;48.106;12.008;2023-06-14T08:03:46;0.30;;;0.30;;
58518;SDS011;44310;48.106;12.008;2023-06-14T08:06:14;0.30;;;0.30;;
58518;SDS011;44310;48.106;12.008;2023-06-14T08:08:42;0.30;;;0.30;;
58518;SDS011;44310;48.106;12.008;2023-06-14T08:11:09;0.30;;;0.30;;
58518;SDS011;44310;48.106;12.008;2023-06-14T08:13:36;0.30;;;0.30;;
58518;SDS011;44310;48.106;12.008;2023-06-14T08:16:03;0.30;;;0.30;;
58518;SDS011;44310;48.106;12.008;2023-06-14T08:18:32;0.30;;;0.30;;
58518;SDS011;44310;48.106;12.008;2023-06-14T08:20:59;0.30;;;0.30;;
58518;SDS011;44310;48.106;12.008;2023-06-14T08:23:26;0.30;;;0.30;;
58518;SDS011;44310;48.106;12.008;2023-06-14T08:25:53;0.30;;;0.30;;
58518;SDS011;44310;48.106;12.008;2023-06-14T08:28:20;0.30;;;0.30;;
58518;SDS011;44310;48.106;12.008;2023-06-14T08:30:48;0.30;;;0.30;;
58518;SDS011;44310;48.106;12.008;2023-06-14T08:33:15;0.30;;;0.30;;
58518;SDS011;44310;48.106;12.008;2023-06-14T08:35:43;0.30;;;0.30;;
58518;SDS011;44310;48.106;12.008;2023-06-14T08:38:11;0.55;;;0.55;;
58518;SDS011;44310;48.106;12.008;2023-06-14T08:40:39;0.40;;;0.40;;
58518;SDS011;44310;48.106;12.008;2023-06-14T08:43:08;0.40;;;0.40;;
58518;SDS011;44310;48.106;12.008;2023-06-14T08:45:35;0.35;;;0.35;;
58518;SDS011;44310;48.106;12.008;2023-06-14T08:48:03;0.30;;;0.30;;
58518;SDS011;44310;48.106;12.008;2023-06-14T08:50:32;0.30;;;0.30;;
58518;SDS011;44310;48.106;12.008;2023-06-14T08:53:01;0.30;;;0.30;;
58518;SDS011;44310;48.106;12.008;2023-06-14T08:55:31;0.30;;;0.30;;
58518;SDS011;44310;48.106;12.008;2023-06-14T08:58:08;0.30;;;0.30;;
58518;SDS011;44310;48.106;12.008;2023-06-14T09:00:41;0.28;;;0.28;;
58518;SDS011;44310;48.106;12.008;2023-06-14T09:03:10;0.25;;;0.25;;
58518;SDS011;44310;48.106;12.008;2023-06-14T09:05:40;0.20;;;0.20;;
58518;SDS011;44310;48.106;12.008;2023-06-14T09:08:08;0.20;;;0.20;;
58518;SDS011;44310;48.106;12.008;2023-06-14T09:10:35;0.20;;;0.20;;
58518;SDS011;44310;48.106;12.008;2023-06-14T09:13:05;0.20;;;0.20;;
58518;SDS011;44310;48.106;12.008;2023-06-14T09:15:33;0.22;;;0.22;;
58518;SDS011;44310;48.106;12.008;2023-06-14T09:18:01;0.20;;;0.20;;
58518;SDS011;44310;48.106;12.008;2023-06-14T09:20:30;0.30;;;0.30;;
58518;SDS011;44310;48.106;12.008;2023-06-14T09:22:57;0.30;;;0.30;;
58518;SDS011;44310;48.106;12.008;2023-06-14T09:25:25;0.20;;;0.20;;
58518;SDS011;44310;48.106;12.008;2023-06-14T09:28:09;0.28;;;0.28;;
58518;SDS011;44310;48.106;12.008;2023-06-14T09:30:37;0.25;;;0.25;;
58518;SDS011;44310;48.106;12.008;2023-06-14T09:33:05;0.25;;;0.25;;
58518;SDS011;44310;48.106;12.008;2023-06-14T09:35:32;0.30;;;0.30;;
58518;SDS011;44310;48.106;12.008;2023-06-14T09:37:59;0.25;;;0.25;;
58518;SDS011;44310;48.106;12.008;2023-06-14T09:40:27;0.30;;;0.30;;
58518;SDS011;44310;48.106;12.008;2023-06-14T09:42:54;0.20;;;0.20;;
58518;SDS011;44310;48.106;12.008;2023-06-14T09:45:25;0.20;;;0.20;;
58518;SDS011;44310;48.106;12.008;2023-06-14T09:47:55;0.20;;;0.20;;
58518;SDS011;44310;48.106;12.008;2023-06-14T09:50:33;0.20;;;0.20;;
58518;SDS011;44310;48.106;12.008;2023-06-14T09:53:07;0.20;;;0.20;;
58518;SDS011;44310;48.106;12.008;2023-06-14T09:55:37;0.22;;;0.22;;
58518;SDS011;44310;48.106;12.008;2023-06-14T09:58:07;0.20;;;0.20;;
58518;SDS011;44310;48.106;12.008;2023-06-14T10:00:36;0.27;;;0.27;;
58518;SDS011;44310;48.106;12.008;2023-06-14T10:03:12;0.20;;;0.20;;
58518;SDS011;44310;48.106;12.008;2023-06-14T10:05:43;0.20;;;0.20;;
58518;SDS011;44310;48.106;12.008;2023-06-14T10:08:16;0.20;;;0.20;;
58518;SDS011;44310;48.106;12.008;2023-06-14T10:10:46;0.20;;;0.20;;
58518;SDS011;44310;48.106;12.008;2023-06-14T10:13:14;0.20;;;0.20;;
58518;SDS011;44310;48.106;12.008;2023-06-14T10:15:48;0.20;;;0.20;;
58518;SDS011;44310;48.106;12.008;2023-06-14T10:18:46;0.20;;;0.20;;
58518;SDS011;44310;48.106;12.008;2023-06-14T10:24:25;0.30;;;0.30;;
58518;SDS011;44310;48.106;12.008;2023-06-14T10:26:59;0.20;;;0.20;;
58518;SDS011;44310;48.106;12.008;2023-06-14T10:29:28;0.20;;;0.20;;
58518;SDS011;44310;48.106;12.008;2023-06-14T10:32:00;0.20;;;0.20;;
58518;SDS011;44310;48.106;12.008;2023-06-14T10:34:28;0.20;;;0.20;;
58518;SDS011;44310;48.106;12.008;2023-06-14T10:37:30;0.20;;;0.20;;
58518;SDS011;44310;48.106;12.008;2023-06-14T10:39:51;0.20;;;0.20;;
58518;SDS011;44310;48.106;12.008;2023-06-14T10:42:19;0.23;;;0.23;;
58518;SDS011;44310;48.106;12.008;2023-06-14T10:44:49;0.20;;;0.20;;
58518;SDS011;44310;48.106;12.008;2023-06-14T10:47:22;0.20;;;0.20;;
58518;SDS011;44310;48.106;12.008;2023-06-14T10:50:02;0.20;;;0.20;;
58518;SDS011;44310;48.106;12.008;2023-06-14T10:52:38;0.20;;;0.20;;
58518;SDS011;44310;48.106;12.008;2023-06-14T10:57:46;0.20;;;0.20;;
58518;SDS011;44310;48.106;12.008;2023-06-14T11:00:20;0.20;;;0.20;;
58518;SDS011;44310;48.106;12.008;2023-06-14T11:05:57;0.20;;;0.20;;
58518;SDS011;44310;48.106;12.008;2023-06-14T11:11:38;0.20;;;0.20;;
58518;SDS011;44310;48.106;12.008;2023-06-14T11:14:09;0.20;;;0.20;;
58518;SDS011;44310;48.106;12.008;2023-06-14T11:16:37;0.20;;;0.20;;
58518;SDS011;44310;48.106;12.008;2023-06-14T11:19:04;0.20;;;0.20;;
58518;SDS011;44310;48.106;12.008;2023-06-14T11:21:32;0.22;;;0.22;;
58518;SDS011;44310;48.106;12.008;2023-06-14T11:24:00;0.20;;;0.20;;
58518;SDS011;44310;48.106;12.008;2023-06-14T11:26:31;0.20;;;0.20;;
58518;SDS011;44310;48.106;12.008;2023-06-14T11:29:01;0.20;;;0.20;;
58518;SDS011;44310;48.106;12.008;2023-06-14T11:31:28;0.20;;;0.20;;
58518;SDS011;44310;48.106;12.008;2023-06-14T11:33:57;0.22;;;0.22;;
58518;SDS011;44310;48.106;12.008;2023-06-14T11:36:29;0.20;;;0.20;;
58518;SDS011;44310;48.106;12.008;2023-06-14T11:39:06;0.20;;;0.20;;
58518;SDS011;44310;48.106;12.008;2023-06-14T11:44:06;0.20;;;0.20;;
58518;SDS011;44310;48.106;12.008;2023-06-14T11:46:34;0.20;;;0.20;;
58518;SDS011;44310;48.106;12.008;2023-06-14T11:49:02;0.20;;;0.20;;
58518;SDS011;44310;48.106;12.008;2023-06-14T11:51:32;0.20;;;0.20;;
58518;SDS011;44310;48.106;12.008;2023-06-14T11:54:01;0.20;;;0.20;;
58518;SDS011;44310;48.106;12.008;2023-06-14T11:56:30;0.20;;;0.20;;
58518;SDS011;44310;48.106;12.008;2023-06-14T11:58:59;0.30;;;0.30;;
58518;SDS011;44310;48.106;12.008;2023-06-14T12:01:27;0.30;;;0.30;;
58518;SDS011;44310;48.106;12.008;2023-06-14T12:03:58;0.20;;;0.20;;
58518;SDS011;44310;48.106;12.008;2023-06-14T12:06:27;0.30;;;0.30;;
58518;SDS011;44310;48.106;12.008;2023-06-14T12:08:56;0.20;;;0.20;;
58518;SDS011;44310;48.106;12.008;2023-06-14T12:11:23;0.20;;;0.20;;
58518;SDS011;44310;48.106;12.008;2023-06-14T12:13:56;0.20;;;0.20;;
58518;SDS011;44310;48.106;12.008;2023-06-14T12:16:29;0.20;;;0.20;;
58518;SDS011;44310;48.106;12.008;2023-06-14T12:19:00;0.20;;;0.20;;
58518;SDS011;44310;48.106;12.008;2023-06-14T12:21:34;0.20;;;0.20;;
58518;SDS011;44310;48.106;12.008;2023-06-14T12:24:03;0.20;;;0.20;;
58518;SDS011;44310;48.106;12.008;2023-06-14T12:26:30;0.20;;;0.20;;
58518;SDS011;44310;48.106;12.008;2023-06-14T12:28:58;0.20;;;0.20;;
58518;SDS011;44310;48.106;12.008;2023-06-14T12:31:25;0.20;;;0.20;;
58518;SDS011;44310;48.106;12.008;2023-06-14T12:33:53;0.20;;;0.20;;
58518;SDS011;44310;48.106;12.008;2023-06-14T12:36:20;0.20;;;0.20;;
58518;SDS011;44310;48.106;12.008;2023-06-14T12:38:47;0.30;;;0.30;;
58518;SDS011;44310;48.106;12.008;2023-06-14T12:41:14;0.30;;;0.30;;
58518;SDS011;44310;48.106;12.008;2023-06-14T12:43:42;0.60;;;0.60;;
58518;SDS011;44310;48.106;12.008;2023-06-14T12:46:09;0.30;;;0.30;;
58518;SDS011;44310;48.106;12.008;2023-06-14T12:48:37;0.30;;;0.30;;
58518;SDS011;44310;48.106;12.008;2023-06-14T12:51:04;0.40;;;0.40;;
58518;SDS011;44310;48.106;12.008;2023-06-14T12:53:31;0.30;;;0.30;;
58518;SDS011;44310;48.106;12.008;2023-06-14T12:55:58;0.50;;;0.50;;
58518;SDS011;44310;48.106;12.008;2023-06-14T12:58:26;0.40;;;0.40;;
58518;SDS011;44310;48.106;12.008;2023-06-14T13:00:53;0.50;;;0.50;;
58518;SDS011;44310;48.106;12.008;2023-06-14T13:03:20;0.70;;;0.70;;
58518;SDS011;44310;48.106;12.008;2023-06-14T13:05:48;0.70;;;0.70;;
58518;SDS011;44310;48.106;12.008;2023-06-14T13:08:15;0.40;;;0.40;;
58518;SDS011;44310;48.106;12.008;2023-06-14T13:10:42;0.40;;;0.40;;
58518;SDS011;44310;48.106;12.008;2023-06-14T13:13:10;0.50;;;0.50;;
58518;SDS011;44310;48.106;12.008;2023-06-14T13:15:38;0.40;;;0.40;;
58518;SDS011;44310;48.106;12.008;2023-06-14T13:18:06;0.30;;;0.30;;
58518;SDS011;44310;48.106;12.008;2023-06-14T13:20:34;0.30;;;0.30;;
58518;SDS011;44310;48.106;12.008;2023-06-14T13:23:01;0.30;;;0.30;;
58518;SDS011;44310;48.106;12.008;2023-06-14T13:25:30;0.40;;;0.40;;
58518;SDS011;44310;48.106;12.008;2023-06-14T13:27:57;0.40;;;0.40;;
58518;SDS011;44310;48.106;12.008;2023-06-14T13:30:25;0.50;;;0.50;;
58518;SDS011;44310;48.106;12.008;2023-06-14T13:32:52;0.40;;;0.40;;
58518;SDS011;44310;48.106;12.008;2023-06-14T13:35:19;0.50;;;0.50;;
58518;SDS011;44310;48.106;12.008;2023-06-14T13:37:47;0.50;;;0.50;;
58518;SDS011;44310;48.106;12.008;2023-06-14T13:40:14;0.40;;;0.40;;
58518;SDS011;44310;48.106;12.008;2023-06-14T13:42:42;0.40;;;0.40;;
58518;SDS011;44310;48.106;12.008;2023-06-14T13:45:10;0.40;;;0.40;;
58518;SDS011;44310;48.106;12.008;2023-06-14T13:47:38;0.40;;;0.40;;
58518;SDS011;44310;48.106;12.008;2023-06-14T13:50:05;0.30;;;0.30;;
58518;SDS011;44310;48.106;12.008;2023-06-14T13:52:33;0.30;;;0.30;;
58518;SDS011;44310;48.106;12.008;2023-06-14T13:55:01;0.22;;;0.22;;
58518;SDS011;44310;48.106;12.008;2023-06-14T13:57:29;0.30;;;0.30;;
58518;SDS011;44310;48.106;12.008;2023-06-14T13:59:56;0.30;;;0.30;;
58518;SDS011;44310;48.106;12.008;2023-06-14T14:02:28;0.30;;;0.30;;
58518;SDS011;44310;48.106;12.008;2023-06-14T14:04:56;0.30;;;0.30;;
58518;SDS011;44310;48.106;12.008;2023-06-14T14:07:24;0.30;;;0.30;;
58518;SDS011;44310;48.106;12.008;2023-06-14T14:09:51;0.30;;;0.30;;
58518;SDS011;44310;48.106;12.008;2023-06-14T14:12:19;0.30;;;0.30;;
58518;SDS011;44310;48.106;12.008;2023-06-14T14:14:47;0.30;;;0.30;;
58518;SDS011;44310;48.106;12.008;2023-06-14T14:17:14;0.25;;;0.25;;
58518;SDS011;44310;48.106;12.008;2023-06-14T14:19:41;0.20;;;0.20;;
58518;SDS011;44310;48.106;12.008;2023-06-14T14:22:08;0.30;;;0.30;;
58518;SDS011;44310;48.106;12.008;2023-06-14T14:24:35;0.20;;;0.20;;
58518;SDS011;44310;48.106;12.008;2023-06-14T14:27:03;0.30;;;0.30;;
58518;SDS011;44310;48.106;12.008;2023-06-14T14:29:32;0.30;;;0.30;;
58518;SDS011;44310;48.106;12.008;2023-06-14T14:31:59;0.30;;;0.30;;
58518;SDS011;44310;48.106;12.008;2023-06-14T14:34:26;0.30;;;0.30;;
58518;SDS011;44310;48.106;12.008;2023-06-14T14:36:54;0.30;;;0.30;;
58518;SDS011;44310;48.106;12.008;2023-06-14T14:39:21;0.25;;;0.25;;
58518;SDS011;44310;48.106;12.008;2023-06-14T14:41:48;0.22;;;0.22;;
58518;SDS011;44310;48.106;12.008;2023-06-14T14:44:16;0.20;;;0.20;;
58518;SDS011;44310;48.106;12.008;2023-06-14T14:46:45;0.20;;;0.20;;
58518;SDS011;44310;48.106;12.008;2023-06-14T14:49:12;0.20;;;0.20;;
58518;SDS011;44310;48.106;12.008;2023-06-14T14:51:39;0.30;;;0.30;;
58518;SDS011;44310;48.106;12.008;2023-06-14T14:54:06;0.30;;;0.30;;
58518;SDS011;44310;48.106;12.008;2023-06-14T14:56:33;0.23;;;0.23;;